sensor_id;sensor_type;location;lat;lon;timestamp;P1;durP1;ratioP1;P2;durP2;ratioP2
63444;SDS011;49573;47.682;9.170;2023-03-15T00:01:06;1.65;;;0.60;;
63444;SDS011;49573;47.682;9.170;2023-03-15T00:03:54;1.60;;;0.98;;
63444;SDS011;49573;47.682;9.170;2023-03-15T00:06:40;0.93;;;0.75;;
63444;SDS011;49573;47.682;9.170;2023-03-15T00:09:27;0.75;;;0.50;;
63444;SDS011;49573;47.682;9.170;2023-03-15T00:12:13;0.82;;;0.28;;
63444;SDS011;49573;47.682;9.170;2023-03-15T00:14:59;1.17;;;0.65;;
63444;SDS011;49573;47.682;9.170;2023-03-15T00:17:46;1.98;;;0.70;;
63444;SDS011;49573;47.682;9.170;2023-03-15T00:20:35;1.88;;;0.50;;
63444;SDS011;49573;47.682;9.170;2023-03-15T00:23:22;0.93;;;0.55;;
63444;SDS011;49573;47.682;9.170;2023-03-15T00:26:08;0.70;;;0.52;;
63444;SDS011;49573;47.682;9.170;2023-03-15T00:28:55;1.45;;;0.57;;
63444;SDS011;49573;47.682;9.170;2023-03-15T00:31:41;1.00;;;0.60;;
63444;SDS011;49573;47.682;9.170;2023-03-15T00:34:27;0.77;;;0.68;;
63444;SDS011;49573;47.682;9.170;2023-03-15T00:37:15;1.63;;;0.40;;
63444;SDS011;49573;47.682;9.170;2023-03-15T00:40:04;1.20;;;0.50;;
63444;SDS011;49573;47.682;9.170;2023-03-15T00:42:51;1.15;;;0.30;;
63444;SDS011;49573;47.682;9.170;2023-03-15T00:45:38;1.67;;;0.35;;
63444;SDS011;49573;47.682;9.170;2023-03-15T00:48:24;0.93;;;0.60;;
63444;SDS011;49573;47.682;9.170;2023-03-15T00:51:11;0.65;;;0.50;;
63444;SDS011;49573;47.682;9.170;2023-03-15T00:53:59;1.10;;;0.68;;
63444;SDS011;49573;47.682;9.170;2023-03-15T00:56:46;1.23;;;0.60;;
63444;SDS011;49573;47.682;9.170;2023-03-15T00:59:32;0.93;;;0.80;;
63444;SDS011;49573;47.682;9.170;2023-03-15T01:05:07;1.42;;;0.77;;
63444;SDS011;49573;47.682;9.170;2023-03-15T01:07:53;2.33;;;1.65;;
63444;SDS011;49573;47.682;9.170;2023-03-15T01:10:41;1.48;;;0.90;;
63444;SDS011;49573;47.682;9.170;2023-03-15T01:13:28;1.38;;;1.10;;
63444;SDS011;49573;47.682;9.170;2023-03-15T01:16:14;2.40;;;1.27;;
63444;SDS011;49573;47.682;9.170;2023-03-15T01:19:01;1.42;;;0.90;;
63444;SDS011;49573;47.682;9.170;2023-03-15T01:21:47;3.50;;;1.52;;
63444;SDS011;49573;47.682;9.170;2023-03-15T01:24:33;2.15;;;1.65;;
63444;SDS011;49573;47.682;9.170;2023-03-15T01:27:21;2.05;;;1.40;;
63444;SDS011;49573;47.682;9.170;2023-03-15T01:30:08;2.03;;;1.40;;
63444;SDS011;49573;47.682;9.170;2023-03-15T01:32:54;2.55;;;1.45;;
63444;SDS011;49573;47.682;9.170;2023-03-15T01:35:41;1.80;;;1.35;;
63444;SDS011;49573;47.682;9.170;2023-03-15T01:38:27;2.30;;;1.70;;
63444;SDS011;49573;47.682;9.170;2023-03-15T01:41:14;2.38;;;1.42;;
63444;SDS011;49573;47.682;9.170;2023-03-15T01:44:02;2.03;;;1.45;;
63444;SDS011;49573;47.682;9.170;2023-03-15T01:46:49;3.33;;;1.88;;
63444;SDS011;49573;47.682;9.170;2023-03-15T01:49:35;3.13;;;2.08;;
63444;SDS011;49573;47.682;9.170;2023-03-15T01:52:22;2.15;;;1.50;;
63444;SDS011;49573;47.682;9.170;2023-03-15T01:55:10;3.90;;;2.17;;
63444;SDS011;49573;47.682;9.170;2023-03-15T01:57:57;3.08;;;2.17;;
63444;SDS011;49573;47.682;9.170;2023-03-15T02:00:46;2.92;;;1.80;;
63444;SDS011;49573;47.682;9.170;2023-03-15T02:03:33;3.15;;;2.10;;
63444;SDS011;49573;47.682;9.170;2023-03-15T02:06:20;3.70;;;2.28;;
63444;SDS011;49573;47.682;9.170;2023-03-15T02:09:07;2.25;;;1.60;;
63444;SDS011;49573;47.682;9.170;2023-03-15T02:11:59;3.42;;;1.88;;
63444;SDS011;49573;47.682;9.170;2023-03-15T02:14:45;2.13;;;1.67;;
63444;SDS011;49573;47.682;9.170;2023-03-15T02:17:34;2.55;;;1.65;;
63444;SDS011;49573;47.682;9.170;2023-03-15T02:20:24;2.17;;;1.50;;
63444;SDS011;49573;47.682;9.170;2023-03-15T02:23:14;2.65;;;1.50;;
63444;SDS011;49573;47.682;9.170;2023-03-15T02:26:05;1.92;;;1.50;;
63444;SDS011;49573;47.682;9.170;2023-03-15T02:28:55;1.90;;;1.23;;
63444;SDS011;49573;47.682;9.170;2023-03-15T02:31:42;2.70;;;1.30;;
63444;SDS011;49573;47.682;9.170;2023-03-15T02:34:28;2.97;;;1.25;;
63444;SDS011;49573;47.682;9.170;2023-03-15T02:40:05;1.95;;;1.20;;
63444;SDS011;49573;47.682;9.170;2023-03-15T02:42:58;2.30;;;1.80;;
63444;SDS011;49573;47.682;9.170;2023-03-15T02:45:46;3.28;;;1.67;;
63444;SDS011;49573;47.682;9.170;2023-03-15T02:48:33;2.00;;;1.30;;
63444;SDS011;49573;47.682;9.170;2023-03-15T02:51:20;4.43;;;1.42;;
63444;SDS011;49573;47.682;9.170;2023-03-15T02:54:07;4.78;;;1.90;;
63444;SDS011;49573;47.682;9.170;2023-03-15T02:56:54;2.63;;;1.48;;
63444;SDS011;49573;47.682;9.170;2023-03-15T02:59:40;2.10;;;1.40;;
63444;SDS011;49573;47.682;9.170;2023-03-15T03:02:28;3.25;;;1.50;;
63444;SDS011;49573;47.682;9.170;2023-03-15T03:05:15;3.15;;;1.83;;
63444;SDS011;49573;47.682;9.170;2023-03-15T03:08:01;1.65;;;1.38;;
63444;SDS011;49573;47.682;9.170;2023-03-15T03:10:47;1.40;;;1.20;;
63444;SDS011;49573;47.682;9.170;2023-03-15T03:13:34;2.42;;;1.65;;
63444;SDS011;49573;47.682;9.170;2023-03-15T03:16:20;2.38;;;1.45;;
63444;SDS011;49573;47.682;9.170;2023-03-15T03:19:08;1.90;;;1.25;;
63444;SDS011;49573;47.682;9.170;2023-03-15T03:21:56;1.80;;;1.40;;
63444;SDS011;49573;47.682;9.170;2023-03-15T03:24:43;3.78;;;1.30;;
63444;SDS011;49573;47.682;9.170;2023-03-15T03:27:30;3.08;;;1.65;;
63444;SDS011;49573;47.682;9.170;2023-03-15T03:30:16;4.32;;;1.60;;
63444;SDS011;49573;47.682;9.170;2023-03-15T03:33:03;4.90;;;1.67;;
63444;SDS011;49573;47.682;9.170;2023-03-15T03:35:51;7.00;;;1.50;;
63444;SDS011;49573;47.682;9.170;2023-03-15T03:38:38;3.53;;;2.00;;
63444;SDS011;49573;47.682;9.170;2023-03-15T03:41:25;3.08;;;1.60;;
63444;SDS011;49573;47.682;9.170;2023-03-15T03:44:11;2.95;;;1.60;;
63444;SDS011;49573;47.682;9.170;2023-03-15T03:46:57;4.47;;;1.77;;
63444;SDS011;49573;47.682;9.170;2023-03-15T03:49:44;2.55;;;1.48;;
63444;SDS011;49573;47.682;9.170;2023-03-15T03:52:32;3.30;;;1.40;;
63444;SDS011;49573;47.682;9.170;2023-03-15T03:55:18;3.58;;;1.60;;
63444;SDS011;49573;47.682;9.170;2023-03-15T03:58:09;3.50;;;1.70;;
63444;SDS011;49573;47.682;9.170;2023-03-15T04:00:55;1.83;;;1.42;;
63444;SDS011;49573;47.682;9.170;2023-03-15T04:03:42;5.55;;;1.50;;
63444;SDS011;49573;47.682;9.170;2023-03-15T04:06:28;3.55;;;1.83;;
63444;SDS011;49573;47.682;9.170;2023-03-15T04:09:17;2.67;;;1.60;;
63444;SDS011;49573;47.682;9.170;2023-03-15T04:12:03;3.10;;;1.40;;
63444;SDS011;49573;47.682;9.170;2023-03-15T04:17:36;3.45;;;1.60;;
63444;SDS011;49573;47.682;9.170;2023-03-15T04:20:24;2.08;;;1.50;;
63444;SDS011;49573;47.682;9.170;2023-03-15T04:23:11;3.13;;;1.75;;
63444;SDS011;49573;47.682;9.170;2023-03-15T04:25:59;3.65;;;1.48;;
63444;SDS011;49573;47.682;9.170;2023-03-15T04:28:46;2.15;;;1.42;;
63444;SDS011;49573;47.682;9.170;2023-03-15T04:31:32;2.95;;;1.80;;
63444;SDS011;49573;47.682;9.170;2023-03-15T04:34:22;2.08;;;1.42;;
63444;SDS011;49573;47.682;9.170;2023-03-15T04:37:12;4.10;;;1.80;;
63444;SDS011;49573;47.682;9.170;2023-03-15T04:39:59;5.50;;;2.08;;
63444;SDS011;49573;47.682;9.170;2023-03-15T04:42:46;3.75;;;1.90;;
63444;SDS011;49573;47.682;9.170;2023-03-15T04:45:33;5.82;;;2.10;;
63444;SDS011;49573;47.682;9.170;2023-03-15T04:48:19;3.03;;;2.20;;
63444;SDS011;49573;47.682;9.170;2023-03-15T04:51:06;8.57;;;2.50;;
63444;SDS011;49573;47.682;9.170;2023-03-15T04:53:52;3.08;;;1.95;;
63444;SDS011;49573;47.682;9.170;2023-03-15T04:56:38;4.47;;;1.77;;
63444;SDS011;49573;47.682;9.170;2023-03-15T04:59:27;3.75;;;1.98;;
63444;SDS011;49573;47.682;9.170;2023-03-15T05:02:14;7.18;;;2.20;;
63444;SDS011;49573;47.682;9.170;2023-03-15T05:05:00;2.72;;;1.92;;
63444;SDS011;49573;47.682;9.170;2023-03-15T05:07:46;4.07;;;2.05;;
63444;SDS011;49573;47.682;9.170;2023-03-15T05:10:33;2.47;;;1.73;;
63444;SDS011;49573;47.682;9.170;2023-03-15T05:13:19;2.85;;;1.50;;
63444;SDS011;49573;47.682;9.170;2023-03-15T05:16:07;3.75;;;1.77;;
63444;SDS011;49573;47.682;9.170;2023-03-15T05:18:53;3.85;;;1.80;;
63444;SDS011;49573;47.682;9.170;2023-03-15T05:21:41;4.22;;;2.10;;
63444;SDS011;49573;47.682;9.170;2023-03-15T05:24:27;4.95;;;2.28;;
63444;SDS011;49573;47.682;9.170;2023-03-15T05:27:14;5.53;;;2.50;;
63444;SDS011;49573;47.682;9.170;2023-03-15T05:30:00;4.20;;;2.47;;
63444;SDS011;49573;47.682;9.170;2023-03-15T05:32:51;3.33;;;1.90;;
63444;SDS011;49573;47.682;9.170;2023-03-15T05:35:38;5.03;;;2.20;;
63444;SDS011;49573;47.682;9.170;2023-03-15T05:38:24;3.15;;;1.75;;
63444;SDS011;49573;47.682;9.170;2023-03-15T05:41:10;5.25;;;2.17;;
63444;SDS011;49573;47.682;9.170;2023-03-15T05:44:02;4.78;;;2.00;;
63444;SDS011;49573;47.682;9.170;2023-03-15T05:46:48;2.97;;;2.00;;
63444;SDS011;49573;47.682;9.170;2023-03-15T05:49:36;4.10;;;2.00;;
63444;SDS011;49573;47.682;9.170;2023-03-15T05:52:23;4.47;;;2.67;;
63444;SDS011;49573;47.682;9.170;2023-03-15T05:55:10;4.55;;;2.10;;
63444;SDS011;49573;47.682;9.170;2023-03-15T05:57:57;6.15;;;2.95;;
63444;SDS011;49573;47.682;9.170;2023-03-15T06:00:43;4.45;;;2.20;;
63444;SDS011;49573;47.682;9.170;2023-03-15T06:03:29;3.58;;;1.80;;
63444;SDS011;49573;47.682;9.170;2023-03-15T06:06:17;5.80;;;2.10;;
63444;SDS011;49573;47.682;9.170;2023-03-15T06:09:04;7.53;;;2.20;;
63444;SDS011;49573;47.682;9.170;2023-03-15T06:11:50;3.22;;;2.15;;
63444;SDS011;49573;47.682;9.170;2023-03-15T06:14:37;5.03;;;2.38;;
63444;SDS011;49573;47.682;9.170;2023-03-15T06:17:24;6.20;;;2.28;;
63444;SDS011;49573;47.682;9.170;2023-03-15T06:20:11;5.18;;;2.30;;
63444;SDS011;49573;47.682;9.170;2023-03-15T06:22:58;3.25;;;1.90;;
63444;SDS011;49573;47.682;9.170;2023-03-15T06:25:45;3.38;;;2.00;;
63444;SDS011;49573;47.682;9.170;2023-03-15T06:28:31;5.53;;;2.50;;
63444;SDS011;49573;47.682;9.170;2023-03-15T06:31:18;7.45;;;2.40;;
63444;SDS011;49573;47.682;9.170;2023-03-15T06:34:04;4.28;;;2.10;;
63444;SDS011;49573;47.682;9.170;2023-03-15T06:36:51;4.05;;;1.92;;
63444;SDS011;49573;47.682;9.170;2023-03-15T06:39:39;4.07;;;1.98;;
63444;SDS011;49573;47.682;9.170;2023-03-15T06:42:25;2.70;;;1.90;;
63444;SDS011;49573;47.682;9.170;2023-03-15T06:45:12;6.10;;;2.72;;
63444;SDS011;49573;47.682;9.170;2023-03-15T06:48:00;5.82;;;2.30;;
63444;SDS011;49573;47.682;9.170;2023-03-15T06:50:47;5.22;;;2.13;;
63444;SDS011;49573;47.682;9.170;2023-03-15T06:53:33;5.55;;;2.83;;
63444;SDS011;49573;47.682;9.170;2023-03-15T06:56:21;8.57;;;2.72;;
63444;SDS011;49573;47.682;9.170;2023-03-15T06:59:07;8.10;;;2.67;;
63444;SDS011;49573;47.682;9.170;2023-03-15T07:01:54;6.35;;;2.72;;
63444;SDS011;49573;47.682;9.170;2023-03-15T07:04:40;6.63;;;2.92;;
63444;SDS011;49573;47.682;9.170;2023-03-15T07:07:28;6.80;;;3.22;;
63444;SDS011;49573;47.682;9.170;2023-03-15T07:10:15;5.13;;;3.40;;
63444;SDS011;49573;47.682;9.170;2023-03-15T07:13:03;6.10;;;3.47;;
63444;SDS011;49573;47.682;9.170;2023-03-15T07:15:51;7.28;;;4.20;;
63444;SDS011;49573;47.682;9.170;2023-03-15T07:18:38;8.82;;;3.42;;
63444;SDS011;49573;47.682;9.170;2023-03-15T07:21:24;6.38;;;3.35;;
63444;SDS011;49573;47.682;9.170;2023-03-15T07:24:11;6.38;;;3.25;;
63444;SDS011;49573;47.682;9.170;2023-03-15T07:26:57;8.02;;;3.30;;
63444;SDS011;49573;47.682;9.170;2023-03-15T07:29:45;7.10;;;3.10;;
63444;SDS011;49573;47.682;9.170;2023-03-15T07:32:31;6.95;;;3.13;;
63444;SDS011;49573;47.682;9.170;2023-03-15T07:35:17;6.50;;;2.88;;
63444;SDS011;49573;47.682;9.170;2023-03-15T07:38:03;4.90;;;2.92;;
63444;SDS011;49573;47.682;9.170;2023-03-15T07:40:49;5.97;;;2.92;;
63444;SDS011;49573;47.682;9.170;2023-03-15T07:43:36;5.53;;;2.80;;
63444;SDS011;49573;47.682;9.170;2023-03-15T07:46:23;10.07;;;2.92;;
63444;SDS011;49573;47.682;9.170;2023-03-15T07:49:09;7.05;;;3.55;;
63444;SDS011;49573;47.682;9.170;2023-03-15T07:51:55;8.20;;;2.90;;
63444;SDS011;49573;47.682;9.170;2023-03-15T07:54:42;6.30;;;2.75;;
63444;SDS011;49573;47.682;9.170;2023-03-15T07:57:28;5.03;;;2.38;;
63444;SDS011;49573;47.682;9.170;2023-03-15T08:00:14;5.50;;;2.60;;
63444;SDS011;49573;47.682;9.170;2023-03-15T08:03:02;4.47;;;2.20;;
63444;SDS011;49573;47.682;9.170;2023-03-15T08:05:49;5.15;;;2.30;;
63444;SDS011;49573;47.682;9.170;2023-03-15T08:08:36;3.60;;;2.40;;
63444;SDS011;49573;47.682;9.170;2023-03-15T08:11:22;6.38;;;2.70;;
63444;SDS011;49573;47.682;9.170;2023-03-15T08:14:08;3.90;;;1.70;;
63444;SDS011;49573;47.682;9.170;2023-03-15T08:16:54;4.80;;;2.40;;
63444;SDS011;49573;47.682;9.170;2023-03-15T08:19:41;4.43;;;2.00;;
63444;SDS011;49573;47.682;9.170;2023-03-15T08:22:27;3.42;;;1.65;;
63444;SDS011;49573;47.682;9.170;2023-03-15T08:25:15;3.65;;;2.00;;
63444;SDS011;49573;47.682;9.170;2023-03-15T08:28:03;5.47;;;2.08;;
63444;SDS011;49573;47.682;9.170;2023-03-15T08:30:49;8.30;;;2.35;;
63444;SDS011;49573;47.682;9.170;2023-03-15T08:33:36;5.10;;;2.00;;
63444;SDS011;49573;47.682;9.170;2023-03-15T08:36:23;6.85;;;2.20;;
63444;SDS011;49573;47.682;9.170;2023-03-15T08:39:09;3.33;;;1.92;;
63444;SDS011;49573;47.682;9.170;2023-03-15T08:41:55;4.93;;;2.08;;
63444;SDS011;49573;47.682;9.170;2023-03-15T08:44:41;4.47;;;1.90;;
63444;SDS011;49573;47.682;9.170;2023-03-15T08:47:28;3.35;;;1.80;;
63444;SDS011;49573;47.682;9.170;2023-03-15T08:50:14;4.32;;;2.05;;
63444;SDS011;49573;47.682;9.170;2023-03-15T08:53:03;4.85;;;2.22;;
63444;SDS011;49573;47.682;9.170;2023-03-15T08:55:49;4.78;;;2.13;;
63444;SDS011;49573;47.682;9.170;2023-03-15T08:58:35;4.50;;;2.00;;
63444;SDS011;49573;47.682;9.170;2023-03-15T09:01:21;3.37;;;2.03;;
63444;SDS011;49573;47.682;9.170;2023-03-15T09:04:08;5.28;;;2.25;;
63444;SDS011;49573;47.682;9.170;2023-03-15T09:06:54;5.80;;;2.10;;
63444;SDS011;49573;47.682;9.170;2023-03-15T09:09:41;4.25;;;2.25;;
63444;SDS011;49573;47.682;9.170;2023-03-15T09:12:32;3.72;;;2.28;;
63444;SDS011;49573;47.682;9.170;2023-03-15T09:15:18;3.20;;;2.20;;
63444;SDS011;49573;47.682;9.170;2023-03-15T09:18:04;5.05;;;2.20;;
63444;SDS011;49573;47.682;9.170;2023-03-15T09:20:50;3.88;;;2.28;;
63444;SDS011;49573;47.682;9.170;2023-03-15T09:23:36;4.97;;;2.23;;
63444;SDS011;49573;47.682;9.170;2023-03-15T09:26:24;4.63;;;2.17;;
63444;SDS011;49573;47.682;9.170;2023-03-15T09:29:10;4.55;;;2.33;;
63444;SDS011;49573;47.682;9.170;2023-03-15T09:31:56;3.65;;;2.28;;
63444;SDS011;49573;47.682;9.170;2023-03-15T09:34:42;5.20;;;2.75;;
63444;SDS011;49573;47.682;9.170;2023-03-15T09:37:28;3.60;;;2.15;;
63444;SDS011;49573;47.682;9.170;2023-03-15T09:40:16;5.32;;;2.25;;
63444;SDS011;49573;47.682;9.170;2023-03-15T09:43:12;5.47;;;2.42;;
63444;SDS011;49573;47.682;9.170;2023-03-15T09:46:22;3.40;;;1.95;;
63444;SDS011;49573;47.682;9.170;2023-03-15T09:49:13;2.63;;;1.80;;
63444;SDS011;49573;47.682;9.170;2023-03-15T09:52:04;2.38;;;1.80;;
63444;SDS011;49573;47.682;9.170;2023-03-15T09:54:58;3.13;;;2.13;;
63444;SDS011;49573;47.682;9.170;2023-03-15T09:57:49;4.22;;;1.90;;
63444;SDS011;49573;47.682;9.170;2023-03-15T10:00:40;2.63;;;1.98;;
63444;SDS011;49573;47.682;9.170;2023-03-15T10:03:31;2.63;;;1.67;;
63444;SDS011;49573;47.682;9.170;2023-03-15T10:06:23;6.38;;;2.30;;
63444;SDS011;49573;47.682;9.170;2023-03-15T10:09:14;3.42;;;2.22;;
63444;SDS011;49573;47.682;9.170;2023-03-15T10:12:04;4.45;;;2.20;;
63444;SDS011;49573;47.682;9.170;2023-03-15T10:14:56;4.18;;;2.20;;
63444;SDS011;49573;47.682;9.170;2023-03-15T10:17:56;2.97;;;2.00;;
63444;SDS011;49573;47.682;9.170;2023-03-15T10:23:49;3.58;;;1.88;;
63444;SDS011;49573;47.682;9.170;2023-03-15T10:26:38;3.05;;;1.95;;
63444;SDS011;49573;47.682;9.170;2023-03-15T10:29:26;3.45;;;2.30;;
63444;SDS011;49573;47.682;9.170;2023-03-15T10:32:14;2.83;;;1.75;;
63444;SDS011;49573;47.682;9.170;2023-03-15T10:35:09;2.83;;;1.95;;
63444;SDS011;49573;47.682;9.170;2023-03-15T10:37:58;3.47;;;1.90;;
63444;SDS011;49573;47.682;9.170;2023-03-15T10:40:45;2.65;;;1.95;;
63444;SDS011;49573;47.682;9.170;2023-03-15T10:43:32;2.70;;;1.80;;
63444;SDS011;49573;47.682;9.170;2023-03-15T10:46:21;3.30;;;1.65;;
63444;SDS011;49573;47.682;9.170;2023-03-15T10:49:09;2.42;;;1.67;;
63444;SDS011;49573;47.682;9.170;2023-03-15T10:52:00;3.72;;;1.80;;
63444;SDS011;49573;47.682;9.170;2023-03-15T10:54:46;3.08;;;1.50;;
63444;SDS011;49573;47.682;9.170;2023-03-15T10:57:33;4.82;;;2.08;;
63444;SDS011;49573;47.682;9.170;2023-03-15T11:00:26;2.30;;;1.75;;
63444;SDS011;49573;47.682;9.170;2023-03-15T11:03:14;1.95;;;1.50;;
63444;SDS011;49573;47.682;9.170;2023-03-15T11:06:02;3.10;;;1.92;;
63444;SDS011;49573;47.682;9.170;2023-03-15T11:09:08;2.10;;;1.67;;
63444;SDS011;49573;47.682;9.170;2023-03-15T11:11:57;3.63;;;1.70;;
63444;SDS011;49573;47.682;9.170;2023-03-15T11:14:45;2.42;;;1.60;;
63444;SDS011;49573;47.682;9.170;2023-03-15T11:17:41;3.90;;;1.48;;
63444;SDS011;49573;47.682;9.170;2023-03-15T11:20:31;2.85;;;1.67;;
63444;SDS011;49573;47.682;9.170;2023-03-15T11:23:21;2.63;;;1.67;;
63444;SDS011;49573;47.682;9.170;2023-03-15T11:26:12;3.63;;;1.15;;
63444;SDS011;49573;47.682;9.170;2023-03-15T11:29:03;3.38;;;1.65;;
63444;SDS011;49573;47.682;9.170;2023-03-15T11:31:52;2.88;;;1.75;;
63444;SDS011;49573;47.682;9.170;2023-03-15T11:34:41;4.78;;;1.90;;
63444;SDS011;49573;47.682;9.170;2023-03-15T11:37:32;3.65;;;1.95;;
63444;SDS011;49573;47.682;9.170;2023-03-15T11:40:24;3.03;;;1.85;;
63444;SDS011;49573;47.682;9.170;2023-03-15T11:43:16;2.78;;;1.60;;
63444;SDS011;49573;47.682;9.170;2023-03-15T11:46:07;2.40;;;1.35;;
63444;SDS011;49573;47.682;9.170;2023-03-15T11:49:11;2.47;;;1.42;;
63444;SDS011;49573;47.682;9.170;2023-03-15T11:52:02;2.05;;;1.40;;
63444;SDS011;49573;47.682;9.170;2023-03-15T11:54:49;2.80;;;1.50;;
63444;SDS011;49573;47.682;9.170;2023-03-15T12:14:35;2.25;;;1.35;;
63444;SDS011;49573;47.682;9.170;2023-03-15T12:17:38;1.85;;;1.30;;
63444;SDS011;49573;47.682;9.170;2023-03-15T12:20:31;1.80;;;1.20;;
63444;SDS011;49573;47.682;9.170;2023-03-15T12:25:07;2.72;;;1.42;;
63444;SDS011;49573;47.682;9.170;2023-03-15T12:27:57;1.70;;;1.00;;
63444;SDS011;49573;47.682;9.170;2023-03-15T12:31:14;1.48;;;0.93;;
63444;SDS011;49573;47.682;9.170;2023-03-15T12:34:01;2.38;;;1.02;;
63444;SDS011;49573;47.682;9.170;2023-03-15T12:36:50;1.33;;;0.90;;
63444;SDS011;49573;47.682;9.170;2023-03-15T12:39:41;2.25;;;0.82;;
63444;SDS011;49573;47.682;9.170;2023-03-15T12:45:54;1.13;;;0.93;;
63444;SDS011;49573;47.682;9.170;2023-03-15T12:48:44;1.10;;;0.60;;
63444;SDS011;49573;47.682;9.170;2023-03-15T12:51:53;1.15;;;0.70;;
63444;SDS011;49573;47.682;9.170;2023-03-15T12:54:41;1.30;;;0.93;;
63444;SDS011;49573;47.682;9.170;2023-03-15T13:32:31;1.63;;;1.15;;
63444;SDS011;49573;47.682;9.170;2023-03-15T13:35:17;1.58;;;1.10;;
63444;SDS011;49573;47.682;9.170;2023-03-15T13:38:08;1.38;;;0.90;;
63444;SDS011;49573;47.682;9.170;2023-03-15T13:40:55;1.90;;;0.98;;
63444;SDS011;49573;47.682;9.170;2023-03-15T13:43:43;1.63;;;0.88;;
63444;SDS011;49573;47.682;9.170;2023-03-15T13:49:17;2.20;;;0.95;;
63444;SDS011;49573;47.682;9.170;2023-03-15T13:52:04;0.80;;;0.80;;
63444;SDS011;49573;47.682;9.170;2023-03-15T13:54:56;1.95;;;0.90;;
63444;SDS011;49573;47.682;9.170;2023-03-15T13:57:42;1.08;;;0.85;;
63444;SDS011;49573;47.682;9.170;2023-03-15T14:00:29;1.75;;;0.70;;
63444;SDS011;49573;47.682;9.170;2023-03-15T14:03:19;0.68;;;0.52;;
63444;SDS011;49573;47.682;9.170;2023-03-15T14:06:09;1.65;;;1.15;;
63444;SDS011;49573;47.682;9.170;2023-03-15T14:08:59;1.85;;;0.63;;
63444;SDS011;49573;47.682;9.170;2023-03-15T14:11:58;2.90;;;1.02;;
63444;SDS011;49573;47.682;9.170;2023-03-15T14:14:48;1.55;;;0.70;;
63444;SDS011;49573;47.682;9.170;2023-03-15T14:17:35;1.40;;;0.95;;
63444;SDS011;49573;47.682;9.170;2023-03-15T14:20:23;1.45;;;0.90;;
63444;SDS011;49573;47.682;9.170;2023-03-15T14:23:15;1.95;;;1.05;;
63444;SDS011;49573;47.682;9.170;2023-03-15T14:26:05;1.42;;;1.10;;
63444;SDS011;49573;47.682;9.170;2023-03-15T14:28:53;1.90;;;0.80;;
63444;SDS011;49573;47.682;9.170;2023-03-15T14:31:45;2.53;;;0.80;;
63444;SDS011;49573;47.682;9.170;2023-03-15T14:34:33;0.77;;;0.63;;
63444;SDS011;49573;47.682;9.170;2023-03-15T14:37:31;0.98;;;0.88;;
63444;SDS011;49573;47.682;9.170;2023-03-15T14:40:27;1.33;;;0.52;;
63444;SDS011;49573;47.682;9.170;2023-03-15T14:43:14;1.25;;;0.85;;
63444;SDS011;49573;47.682;9.170;2023-03-15T14:46:00;1.85;;;0.98;;
63444;SDS011;49573;47.682;9.170;2023-03-15T14:48:47;2.33;;;1.40;;
63444;SDS011;49573;47.682;9.170;2023-03-15T14:51:34;1.92;;;1.30;;
63444;SDS011;49573;47.682;9.170;2023-03-15T14:54:20;2.00;;;1.00;;
63444;SDS011;49573;47.682;9.170;2023-03-15T14:57:08;1.67;;;1.00;;
63444;SDS011;49573;47.682;9.170;2023-03-15T14:59:55;0.88;;;0.68;;
63444;SDS011;49573;47.682;9.170;2023-03-15T15:02:41;1.25;;;0.85;;
63444;SDS011;49573;47.682;9.170;2023-03-15T15:05:29;0.95;;;0.70;;
63444;SDS011;49573;47.682;9.170;2023-03-15T15:08:17;1.73;;;0.90;;
63444;SDS011;49573;47.682;9.170;2023-03-15T15:11:04;1.40;;;0.98;;
63444;SDS011;49573;47.682;9.170;2023-03-15T15:13:54;1.25;;;0.80;;
63444;SDS011;49573;47.682;9.170;2023-03-15T15:16:42;1.08;;;0.77;;
63444;SDS011;49573;47.682;9.170;2023-03-15T15:19:28;1.55;;;0.90;;
63444;SDS011;49573;47.682;9.170;2023-03-15T15:22:15;1.20;;;0.70;;
63444;SDS011;49573;47.682;9.170;2023-03-15T15:25:04;1.15;;;0.70;;
63444;SDS011;49573;47.682;9.170;2023-03-15T15:27:51;1.08;;;0.40;;
63444;SDS011;49573;47.682;9.170;2023-03-15T15:30:39;2.00;;;1.20;;
63444;SDS011;49573;47.682;9.170;2023-03-15T15:33:25;1.27;;;0.80;;
63444;SDS011;49573;47.682;9.170;2023-03-15T15:36:12;2.08;;;0.80;;
63444;SDS011;49573;47.682;9.170;2023-03-15T15:38:59;1.08;;;0.75;;
63444;SDS011;49573;47.682;9.170;2023-03-15T15:41:48;1.85;;;0.90;;
63444;SDS011;49573;47.682;9.170;2023-03-15T15:44:34;0.77;;;0.77;;
63444;SDS011;49573;47.682;9.170;2023-03-15T15:47:22;0.70;;;0.70;;
63444;SDS011;49573;47.682;9.170;2023-03-15T15:50:09;0.88;;;0.60;;
63444;SDS011;49573;47.682;9.170;2023-03-15T15:52:56;1.70;;;0.60;;
63444;SDS011;49573;47.682;9.170;2023-03-15T15:55:43;0.80;;;0.40;;
63444;SDS011;49573;47.682;9.170;2023-03-15T16:01:16;1.63;;;0.68;;
63444;SDS011;49573;47.682;9.170;2023-03-15T16:04:04;1.83;;;0.70;;
63444;SDS011;49573;47.682;9.170;2023-03-15T16:06:51;1.25;;;0.80;;
63444;SDS011;49573;47.682;9.170;2023-03-15T16:09:38;2.28;;;0.88;;
63444;SDS011;49573;47.682;9.170;2023-03-15T16:12:25;0.90;;;0.50;;
63444;SDS011;49573;47.682;9.170;2023-03-15T16:15:11;1.35;;;1.13;;
63444;SDS011;49573;47.682;9.170;2023-03-15T16:17:59;0.82;;;0.50;;
63444;SDS011;49573;47.682;9.170;2023-03-15T16:20:47;1.02;;;0.68;;
63444;SDS011;49573;47.682;9.170;2023-03-15T16:23:33;1.13;;;0.85;;
63444;SDS011;49573;47.682;9.170;2023-03-15T16:26:20;0.70;;;0.57;;
63444;SDS011;49573;47.682;9.170;2023-03-15T16:29:11;1.35;;;0.80;;
63444;SDS011;49573;47.682;9.170;2023-03-15T16:31:59;0.95;;;0.77;;
63444;SDS011;49573;47.682;9.170;2023-03-15T16:34:46;2.75;;;0.88;;
63444;SDS011;49573;47.682;9.170;2023-03-15T16:37:34;0.90;;;0.70;;
63444;SDS011;49573;47.682;9.170;2023-03-15T16:40:21;1.00;;;0.75;;
63444;SDS011;49573;47.682;9.170;2023-03-15T16:43:09;1.02;;;0.75;;
63444;SDS011;49573;47.682;9.170;2023-03-15T16:45:56;0.68;;;0.68;;
63444;SDS011;49573;47.682;9.170;2023-03-15T16:48:42;1.05;;;0.95;;
63444;SDS011;49573;47.682;9.170;2023-03-15T16:51:29;2.25;;;1.77;;
63444;SDS011;49573;47.682;9.170;2023-03-15T16:54:17;0.60;;;0.40;;
63444;SDS011;49573;47.682;9.170;2023-03-15T16:57:08;1.00;;;0.60;;
63444;SDS011;49573;47.682;9.170;2023-03-15T16:59:56;1.50;;;0.60;;
63444;SDS011;49573;47.682;9.170;2023-03-15T17:02:44;1.98;;;1.02;;
63444;SDS011;49573;47.682;9.170;2023-03-15T17:05:30;1.42;;;0.60;;
63444;SDS011;49573;47.682;9.170;2023-03-15T17:08:18;1.55;;;0.77;;
63444;SDS011;49573;47.682;9.170;2023-03-15T17:11:06;1.15;;;0.60;;
63444;SDS011;49573;47.682;9.170;2023-03-15T17:13:53;2.60;;;0.80;;
63444;SDS011;49573;47.682;9.170;2023-03-15T17:16:40;1.02;;;0.90;;
63444;SDS011;49573;47.682;9.170;2023-03-15T17:19:26;1.67;;;0.80;;
63444;SDS011;49573;47.682;9.170;2023-03-15T17:22:13;1.05;;;0.95;;
63444;SDS011;49573;47.682;9.170;2023-03-15T17:25:00;2.95;;;1.25;;
63444;SDS011;49573;47.682;9.170;2023-03-15T17:27:48;1.77;;;1.00;;
63444;SDS011;49573;47.682;9.170;2023-03-15T17:30:35;1.38;;;0.90;;
63444;SDS011;49573;47.682;9.170;2023-03-15T17:33:22;1.95;;;1.20;;
63444;SDS011;49573;47.682;9.170;2023-03-15T17:36:10;4.03;;;1.60;;
63444;SDS011;49573;47.682;9.170;2023-03-15T17:38:57;2.92;;;1.80;;
63444;SDS011;49573;47.682;9.170;2023-03-15T17:41:44;4.53;;;1.65;;
63444;SDS011;49573;47.682;9.170;2023-03-15T17:44:32;3.55;;;1.80;;
63444;SDS011;49573;47.682;9.170;2023-03-15T17:47:19;4.05;;;1.52;;
63444;SDS011;49573;47.682;9.170;2023-03-15T17:50:06;1.83;;;1.33;;
63444;SDS011;49573;47.682;9.170;2023-03-15T17:55:39;2.28;;;1.20;;
63444;SDS011;49573;47.682;9.170;2023-03-15T17:58:25;1.98;;;1.33;;
63444;SDS011;49573;47.682;9.170;2023-03-15T18:01:14;3.65;;;1.90;;
63444;SDS011;49573;47.682;9.170;2023-03-15T18:04:00;4.35;;;2.42;;
63444;SDS011;49573;47.682;9.170;2023-03-15T18:06:47;4.03;;;1.83;;
63444;SDS011;49573;47.682;9.170;2023-03-15T18:09:34;1.58;;;1.20;;